Time;durP1;ratioP1;P1;durP2;ratioP2;P2;SDS_P1;SDS_P2;PMS_P1;PMS_P2;Temp;Humidity;BMP_temperature;BMP_pressure;BME280_temperature;BME280_humidity;BME280_pressure;Samples;Min_cycle;Max_cycle;Signal;HPM_P1;HPM_P2
2021/11/01 00:02:11;;;;;;;2.30;2.00;;;16.10;99.90;;;;;;6294265;28;20118;-83
2021/11/01 00:05:11;;;;;;;2.30;2.10;;;16.10;99.90;;;;;;6293816;28;20028;-83
2021/11/01 00:08:12;;;;;;;2.63;2.08;;;16.10;99.90;;;;;;6293703;28;20064;-83
2021/11/01 00:11:13;;;;;;;2.13;1.92;;;15.90;99.90;;;;;;6293831;28;20036;-84
2021/11/01 00:14:13;;;;;;;3.08;1.88;;;15.90;99.90;;;;;;6277476;28;20028;-83
2021/11/01 00:17:14;;;;;;;3.60;3.00;;;15.90;99.90;;;;;;6293318;28;20029;-83
2021/11/01 00:20:15;;;;;;;2.67;2.00;;;15.80;99.90;;;;;;6293386;28;20044;-83
2021/11/01 00:23:15;;;;;;;2.13;1.92;;;15.80;99.90;;;;;;6294434;28;20516;-84
2021/11/01 00:26:16;;;;;;;4.57;1.98;;;15.80;99.90;;;;;;6260591;28;20127;-83
2021/11/01 00:29:17;;;;;;;3.50;2.03;;;15.60;99.90;;;;;;6260124;28;20115;-83
2021/11/01 00:32:17;;;;;;;3.63;1.90;;;15.80;99.90;;;;;;6293182;28;20036;-83
2021/11/01 00:35:18;;;;;;;3.00;2.00;;;15.50;99.90;;;;;;6277810;28;20386;-83
2021/11/01 00:38:27;;;;;;;1.92;1.73;;;15.70;99.90;;;;;;6295075;28;20028;-83
2021/11/01 00:41:27;;;;;;;2.20;2.00;;;15.50;99.90;;;;;;6259875;28;20036;-83
2021/11/01 00:44:28;;;;;;;1.88;1.75;;;15.50;99.90;;;;;;6276323;28;20471;-83
2021/11/01 00:47:29;;;;;;;2.53;2.17;;;15.50;99.90;;;;;;6259923;28;20070;-83
2021/11/01 00:50:32;;;;;;;2.13;1.73;;;15.50;99.90;;;;;;6262552;28;20024;-83
2021/11/01 00:53:35;;;;;;;4.03;2.10;;;15.50;99.90;;;;;;6278810;28;20029;-83
2021/11/01 00:56:36;;;;;;;2.17;1.92;;;15.40;99.90;;;;;;6260509;28;20149;-83
2021/11/01 00:59:37;;;;;;;2.92;2.03;;;;;;;;;;6292508;28;20684;-83
2021/11/01 01:02:37;;;;;;;3.60;2.10;;;15.30;99.90;;;;;;6294557;28;20032;-83
2021/11/01 01:05:39;;;;;;;1.92;1.80;;;15.60;99.90;;;;;;6292476;28;20059;-83
2021/11/01 01:08:39;;;;;;;2.38;1.73;;;15.30;99.90;;;;;;6283786;28;20153;-83
2021/11/01 01:11:40;;;;;;;3.50;2.15;;;15.10;99.90;;;;;;6300515;28;20032;-83
2021/11/01 01:14:47;;;;;;;2.00;1.80;;;15.30;99.90;;;;;;6299990;28;20036;-83
2021/11/01 01:17:48;;;;;;;2.95;1.92;;;15.00;99.90;;;;;;6316635;28;20028;-84
2021/11/01 01:20:50;;;;;;;3.08;2.30;;;15.00;99.90;;;;;;6283483;28;20444;-83
2021/11/01 01:23:51;;;;;;;1.90;1.80;;;14.90;99.90;;;;;;6299944;28;20047;-83
2021/11/01 01:26:51;;;;;;;2.00;1.77;;;15.00;99.90;;;;;;6300104;28;20028;-83
2021/11/01 01:29:52;;;;;;;1.98;1.80;;;14.90;99.90;;;;;;6317152;28;20511;-84
2021/11/01 01:32:52;;;;;;;3.53;1.90;;;14.90;99.90;;;;;;6298997;28;20341;-83
2021/11/01 01:35:53;;;;;;;13.07;2.90;;;14.80;99.90;;;;;;6275149;28;20031;-83
2021/11/01 01:38:54;;;;;;;2.55;2.00;;;14.90;99.90;;;;;;6275117;28;20036;-83
2021/11/01 01:41:54;;;;;;;2.47;1.80;;;14.50;99.90;;;;;;6291725;28;20073;-83
2021/11/01 01:44:55;;;;;;;3.70;2.35;;;14.70;99.90;;;;;;6291302;28;20036;-84
2021/11/01 01:47:56;;;;;;;1.75;1.63;;;14.70;99.90;;;;;;6274962;28;20028;-83
2021/11/01 01:50:57;;;;;;;2.83;1.67;;;14.70;99.90;;;;;;6293525;28;20459;-83
2021/11/01 01:53:58;;;;;;;1.98;1.23;;;14.60;99.90;;;;;;6291741;28;20127;-83
2021/11/01 01:56:59;;;;;;;1.35;1.27;;;14.60;99.90;;;;;;6270435;28;20127;-83
2021/11/01 01:59:59;;;;;;;2.10;1.27;;;14.60;99.90;;;;;;6291534;28;20045;-83
2021/11/01 02:03:01;;;;;;;0.73;0.73;;;14.50;99.90;;;;;;6292120;28;20094;-83
2021/11/01 02:06:13;;;;;;;1.20;1.10;;;14.60;99.90;;;;;;6276111;28;20029;-83
2021/11/01 02:09:42;;;;;;;2.15;1.58;;;14.50;99.90;;;;;;6275481;28;20021;-83
2021/11/01 02:12:46;;;;;;;1.40;1.27;;;14.40;99.90;;;;;;6293120;28;20025;-83
2021/11/01 02:15:49;;;;;;;2.08;1.88;;;14.10;99.90;;;;;;6258995;28;20115;-83
2021/11/01 02:18:51;;;;;;;1.52;1.40;;;14.40;99.90;;;;;;6291030;28;20029;-82
2021/11/01 02:22:03;;;;;;;2.40;1.30;;;14.10;99.90;;;;;;6258546;28;20036;-82
2021/11/01 02:25:04;;;;;;;2.13;1.27;;;;;;;;;;6291167;28;20029;-82
2021/11/01 02:28:05;;;;;;;3.33;0.85;;;13.70;99.90;;;;;;6293432;28;20024;-82
2021/11/01 02:31:06;;;;;;;1.92;0.77;;;13.70;99.90;;;;;;6290659;28;20127;-83
2021/11/01 02:34:07;;;;;;;2.15;0.60;;;13.60;99.90;;;;;;6262411;28;20032;-83
2021/11/01 02:37:08;;;;;;;0.40;0.40;;;13.30;99.90;;;;;;6274512;28;20491;-83
2021/11/01 02:40:09;;;;;;;1.48;1.00;;;13.50;99.90;;;;;;6274160;28;20044;-83
2021/11/01 02:43:10;;;;;;;1.23;0.80;;;;;;;;;;6315332;28;20028;-82
2021/11/01 02:46:11;;;;;;;1.70;1.13;;;13.40;99.90;;;;;;6317203;28;20107;-82
2021/11/01 02:49:11;;;;;;;0.88;0.70;;;13.30;99.90;;;;;;6315477;28;20146;-83
2021/11/01 02:52:12;;;;;;;1.55;0.73;;;13.20;99.90;;;;;;6317031;28;20020;-83
2021/11/01 02:55:13;;;;;;;1.27;1.10;;;13.10;99.90;;;;;;6315431;28;20436;-83
2021/11/01 02:58:14;;;;;;;3.10;0.77;;;13.20;99.90;;;;;;6315310;28;20038;-82
2021/11/01 03:01:16;;;;;;;1.20;0.90;;;13.40;99.90;;;;;;6315592;28;20039;-82
2021/11/01 03:04:17;;;;;;;2.03;0.75;;;;;;;;;;6308239;28;20031;-83
2021/11/01 03:07:18;;;;;;;1.13;1.02;;;13.30;99.90;;;;;;6290970;28;20119;-82
2021/11/01 03:10:18;;;;;;;2.33;1.02;;;13.40;99.90;;;;;;6273955;28;20029;-82
2021/11/01 03:13:19;;;;;;;3.53;1.30;;;13.00;99.90;;;;;;6257551;28;20115;-82
2021/11/01 03:16:20;;;;;;;0.50;0.50;;;12.80;99.90;;;;;;6293066;28;20068;-82
2021/11/01 03:19:23;;;;;;;1.42;0.73;;;12.60;99.90;;;;;;6266611;28;20029;-82
2021/11/01 03:22:23;;;;;;;0.60;0.60;;;12.50;99.90;;;;;;6291506;28;20032;-82
2021/11/01 03:25:28;;;;;;;0.55;0.52;;;12.60;99.90;;;;;;6273389;28;20099;-82
2021/11/01 03:28:30;;;;;;;0.98;0.77;;;12.40;99.90;;;;;;6278774;28;20028;-82
2021/11/01 03:31:32;;;;;;;2.53;0.73;;;12.20;99.90;;;;;;6263077;28;20374;-82
2021/11/01 03:34:33;;;;;;;1.13;0.70;;;;;;;;;;6274950;28;20032;-82
2021/11/01 03:37:35;;;;;;;0.55;0.55;;;12.30;99.90;;;;;;6295151;28;20041;-82
2021/11/01 03:40:37;;;;;;;1.00;0.90;;;;;;;;;;6294685;28;20041;-82
2021/11/01 03:43:45;;;;;;;0.60;0.60;;;12.00;99.90;;;;;;6294489;28;20035;-82
2021/11/01 03:46:55;;;;;;;1.65;0.65;;;;;;;;;;6295067;28;20360;-82
2021/11/01 03:49:58;;;;;;;0.55;0.55;;;;;;;;;;6278644;28;20132;-82
2021/11/01 03:52:59;;;;;;;1.60;0.95;;;12.20;99.90;;;;;;6294477;28;20032;-82
2021/11/01 03:56:00;;;;;;;1.02;0.85;;;;;;;;;;6294026;28;20433;-82
2021/11/01 03:59:01;;;;;;;0.50;0.50;;;12.20;99.90;;;;;;6277475;28;20081;-82
2021/11/01 04:02:02;;;;;;;0.93;0.65;;;11.90;99.90;;;;;;6261015;28;20549;-82
2021/11/01 04:05:03;;;;;;;1.38;0.60;;;12.10;99.90;;;;;;6277319;28;20094;-82
2021/11/01 04:08:03;;;;;;;1.95;0.98;;;12.00;99.90;;;;;;6314933;28;20607;-82
2021/11/01 04:11:04;;;;;;;0.65;0.65;;;;;;;;;;6318800;28;20036;-82
2021/11/01 04:14:13;;;;;;;1.27;0.90;;;11.70;99.90;;;;;;6318669;28;20032;-82
2021/11/01 04:17:22;;;;;;;1.30;1.02;;;11.80;99.90;;;;;;6302355;28;20412;-82
2021/11/01 04:20:38;;;;;;;0.40;0.40;;;11.80;99.90;;;;;;6302695;28;20046;-82
2021/11/01 04:23:39;;;;;;;2.13;1.08;;;11.80;99.90;;;;;;6279222;28;20165;-82
2021/11/01 04:26:42;;;;;;;1.88;1.10;;;11.70;99.90;;;;;;6276289;28;20029;-82
2021/11/01 04:29:42;;;;;;;0.88;0.77;;;11.40;99.90;;;;;;6278619;28;20078;-82
2021/11/01 04:32:44;;;;;;;1.27;0.85;;;11.60;99.90;;;;;;6293729;28;20029;-82
2021/11/01 04:35:45;;;;;;;1.35;0.60;;;11.60;99.90;;;;;;6295434;28;20059;-82
2021/11/01 04:42:46;;;;;;;1.75;1.02;;;11.40;99.90;;;;;;6304187;28;20028;-81
2021/11/01 04:55:05;;;;;;;1.33;1.15;;;11.40;99.90;;;;;;6278514;28;20032;-82
2021/11/01 04:58:06;;;;;;;2.40;1.13;;;11.30;99.90;;;;;;6294823;28;20482;-82
2021/11/01 05:01:06;;;;;;;0.85;0.50;;;11.30;99.90;;;;;;6278377;28;20089;-82
2021/11/01 05:04:09;;;;;;;1.85;0.75;;;11.20;99.90;;;;;;6266321;28;20792;-82
2021/11/01 05:07:10;;;;;;;1.75;1.13;;;11.30;99.90;;;;;;6293055;28;20459;-82
2021/11/01 05:13:14;;;;;;;2.78;1.65;;;11.30;99.90;;;;;;6317381;28;20028;-81
2021/11/01 05:16:29;;;;;;;2.03;1.60;;;11.10;99.90;;;;;;6300908;28;20036;-82
2021/11/01 05:19:33;;;;;;;2.40;1.80;;;11.30;99.90;;;;;;6301839;28;20032;-82
2021/11/01 05:25:42;;;;;;;5.03;2.40;;;11.20;99.90;;;;;;6280941;28;20039;-82
2021/11/01 05:28:45;;;;;;;3.47;1.40;;;11.20;99.90;;;;;;6294144;28;20024;-82
2021/11/01 05:31:54;;;;;;;2.33;1.58;;;11.10;99.90;;;;;;6280962;28;20037;-82
2021/11/01 05:34:55;;;;;;;4.18;1.58;;;11.10;99.90;;;;;;6292382;28;20032;-82
2021/11/01 05:37:56;;;;;;;1.60;0.90;;;11.10;99.90;;;;;;6292659;28;20047;-82
2021/11/01 05:40:56;;;;;;;2.67;1.05;;;11.10;99.90;;;;;;6293473;28;20363;-82
2021/11/01 05:43:57;;;;;;;2.15;1.63;;;11.10;99.90;;;;;;6258828;28;20538;-82
2021/11/01 05:46:58;;;;;;;3.85;2.47;;;11.00;99.90;;;;;;6293117;28;20131;-82
2021/11/01 05:49:59;;;;;;;5.78;4.00;;;11.00;99.90;;;;;;6308182;28;20062;-83
2021/11/01 05:53:02;;;;;;;2.22;2.03;;;10.90;99.90;;;;;;6282722;28;20024;-81
2021/11/01 06:15:33;;;;;;;7.55;4.47;;;;;;;;;;6293675;28;20036;-82
2021/11/01 06:18:36;;;;;;;5.15;2.00;;;;;;;;;;6291076;28;20035;-82
2021/11/01 06:21:37;;;;;;;4.13;2.55;;;10.40;99.90;;;;;;6292875;28;20417;-82
2021/11/01 06:27:39;;;;;;;1.25;1.15;;;;;;;;;;6293144;28;20024;-82
2021/11/01 06:30:46;;;;;;;1.85;1.10;;;10.70;99.90;;;;;;6291341;28;20454;-82
2021/11/01 06:43:32;;;;;;;5.28;3.15;;;10.20;99.90;;;;;;6292778;28;20026;-82
2021/11/01 07:15:46;;;;;;;3.05;2.28;;;9.90;99.90;;;;;;6295389;28;20036;-81
2021/11/01 07:22:24;;;;;;;4.15;2.80;;;10.00;99.90;;;;;;6305394;28;20041;-81
2021/11/01 08:17:17;;;;;;;2.45;2.17;;;9.90;99.90;;;;;;6295396;28;20052;-82
2021/11/01 08:29:26;;;;;;;3.25;2.60;;;10.50;99.90;;;;;;6293755;28;20035;-84
2021/11/01 08:48:36;;;;;;;3.55;2.47;;;10.30;99.90;;;;;;6267892;28;20028;-86
2021/11/01 09:08:30;;;;;;;3.13;1.88;;;10.10;99.90;;;;;;6265078;28;20079;-83
2021/11/01 09:27:36;;;;;;;2.13;1.98;;;10.20;99.90;;;;;;6291955;28;20107;-86
2021/11/01 09:43:51;;;;;;;4.20;3.35;;;10.10;99.90;;;;;;6267326;28;20028;-88
2021/11/01 09:46:56;;;;;;;1.67;1.58;;;10.30;99.90;;;;;;6244597;28;20115;-88
2021/11/01 09:49:59;;;;;;;2.33;2.13;;;10.40;99.90;;;;;;6234899;28;20092;-88
2021/11/01 09:53:02;;;;;;;3.72;2.10;;;;;;;;;;6232825;28;20029;-90
2021/11/01 09:59:11;;;;;;;4.38;2.00;;;;;;;;;;6231701;28;20040;-89
2021/11/01 10:02:17;;;;;;;3.53;2.67;;;10.40;99.90;;;;;;6252734;28;20024;-88
2021/11/01 10:05:25;;;;;;;3.72;2.78;;;;;;;;;;6235742;28;20161;-89
2021/11/01 10:08:30;;;;;;;3.88;2.15;;;;;;;;;;6255372;28;20063;-89
2021/11/01 10:11:36;;;;;;;2.47;2.10;;;10.50;99.90;;;;;;6229512;28;20033;-87
2021/11/01 10:14:54;;;;;;;2.38;1.65;;;10.70;99.90;;;;;;6232005;28;20037;-84
2021/11/01 10:17:58;;;;;;;2.78;1.58;;;9.70;99.90;;;;;;6258368;28;20044;-86
2021/11/01 10:20:59;;;;;;;2.72;2.05;;;;;;;;;;6266564;28;20122;-89
2021/11/01 10:24:00;;;;;;;1.83;1.70;;;10.90;99.90;;;;;;6306900;28;20024;-85
2021/11/01 10:27:06;;;;;;;3.30;1.67;;;;;;;;;;6264408;28;20645;-86
2021/11/01 10:30:11;;;;;;;2.53;1.90;;;11.10;99.90;;;;;;6277503;28;20020;-83
2021/11/01 10:33:12;;;;;;;4.93;2.33;;;11.40;99.90;;;;;;6293106;28;20040;-82
2021/11/01 10:39:55;;;;;;;2.13;1.92;;;11.00;99.90;;;;;;6297404;28;20090;-87
2021/11/01 10:43:07;;;;;;;2.72;2.10;;;11.20;99.90;;;;;;6263446;28;20040;-86
2021/11/01 11:15:34;;;;;;;6.47;5.07;;;;;;;;;;6293888;28;20035;-86
2021/11/01 11:18:53;;;;;;;9.77;8.82;;;11.30;99.90;;;;;;6276322;28;20111;-84
2021/11/01 11:49:26;;;;;;;3.67;2.83;;;11.30;99.90;;;;;;6261976;28;19913;-81
2021/11/01 11:52:27;;;;;;;3.72;2.60;;;;;;;;;;6258751;28;20045;-82
2021/11/01 11:55:29;;;;;;;6.43;2.35;;;;;;;;;;6264358;28;20053;-82
2021/11/01 11:58:40;;;;;;;4.82;2.45;;;11.20;99.90;;;;;;6254815;28;20525;-85
2021/11/01 12:01:43;;;;;;;4.10;2.63;;;11.00;99.90;;;;;;6257102;28;20131;-83
2021/11/01 12:04:47;;;;;;;7.43;2.90;;;;;;;;;;6238923;28;20041;-88
2021/11/01 12:08:09;;;;;;;4.30;2.50;;;11.10;99.90;;;;;;6251188;28;20036;-91
2021/11/01 12:14:35;;;;;;;5.32;3.05;;;11.40;99.90;;;;;;6254210;28;20116;-86
2021/11/01 12:17:36;;;;;;;4.90;2.90;;;;;;;;;;6297807;28;20047;-87
2021/11/01 12:20:39;;;;;;;3.97;2.60;;;11.00;99.90;;;;;;6265399;28;20033;-86
2021/11/01 12:23:40;;;;;;;4.97;2.55;;;11.40;99.90;;;;;;6262102;28;20493;-83
2021/11/01 12:26:44;;;;;;;6.15;2.25;;;11.40;99.90;;;;;;6262630;28;20465;-85
2021/11/01 12:29:45;;;;;;;5.95;2.60;;;11.40;99.90;;;;;;6264272;28;20035;-85
2021/11/01 12:32:46;;;;;;;5.20;2.40;;;;;;;;;;6257780;28;20551;-87
2021/11/01 12:47:49;;;;;;;12.88;2.50;;;;;;;;;;6220602;28;20026;-86
2021/11/01 12:57:33;;;;;;;29.40;5.55;;;12.30;99.90;;;;;;6211662;28;20109;-85
2021/11/01 13:00:38;;;;;;;2.40;2.00;;;12.30;99.90;;;;;;6205869;28;20400;-89
2021/11/01 13:03:39;;;;;;;2.60;1.90;;;;;;;;;;6218171;28;20037;-89
2021/11/01 13:06:54;;;;;;;3.88;1.92;;;;;;;;;;6212763;28;20025;-89
2021/11/01 13:10:06;;;;;;;4.88;1.88;;;12.50;99.90;;;;;;6212673;28;20053;-83
2021/11/01 13:13:23;;;;;;;6.00;1.75;;;12.70;99.90;;;;;;6206397;28;20505;-82
2021/11/01 13:19:44;;;;;;;2.97;2.00;;;12.80;99.90;;;;;;6179873;28;20038;-81
2021/11/01 13:22:56;;;;;;;3.88;2.33;;;12.80;99.90;;;;;;6183430;28;20403;-81
2021/11/01 13:34:44;;;;;;;4.63;2.42;;;12.90;99.90;;;;;;6246022;28;20388;-81
2021/11/01 13:36:07;;;;;;;7.07;2.30;;;13.10;99.90;;;;;;6249952;28;20029;-84
2021/11/01 13:39:10;;;;;;;3.85;2.00;;;13.20;99.90;;;;;;6234550;28;20451;-82
2021/11/01 13:42:15;;;;;;;;;;;13.40;99.90;;;;;;6250646;28;20032;-83
2021/11/01 13:45:16;;;;;;;3.85;2.25;;;13.50;99.90;;;;;;6266766;28;19921;-83
2021/11/01 13:48:24;;;;;;;2.28;1.90;;;13.50;99.90;;;;;;6244688;28;20108;-83
2021/11/01 13:51:29;;;;;;;5.65;2.05;;;13.40;99.90;;;;;;6229797;28;20044;-85
2021/11/01 13:54:36;;;;;;;3.80;1.83;;;13.80;99.90;;;;;;6233413;28;20030;-86
2021/11/01 13:58:54;;;;;;;4.68;2.70;;;13.50;99.90;;;;;;6207718;28;20136;-86
2021/11/01 15:38:31;;;;;;;6.97;3.17;;;11.30;99.90;;;;;;6246467;28;20459;-85
2021/11/01 16:20:48;;;;;;;20.42;14.88;;;11.00;99.90;;;;;;6253988;28;20103;-84
2021/11/01 16:23:48;;;;;;;11.05;6.55;;;10.70;99.90;;;;;;6230052;28;20029;-83
2021/11/01 16:26:49;;;;;;;7.55;5.03;;;;;;;;;;6243621;28;20364;-84
2021/11/01 16:30:04;;;;;;;6.07;4.55;;;;;;;;;;6264271;28;20028;-85
2021/11/01 16:33:07;;;;;;;5.93;3.85;;;10.50;99.90;;;;;;6263848;28;20049;-84
2021/11/01 16:36:11;;;;;;;5.38;2.60;;;;;;;;;;6244906;28;20103;-85
2021/11/01 16:39:15;;;;;;;6.60;4.75;;;10.60;99.90;;;;;;6260112;28;20380;-84
2021/11/01 16:42:33;;;;;;;4.45;2.50;;;10.60;99.90;;;;;;6244047;28;20095;-85
2021/11/01 16:49:31;;;;;;;9.73;7.63;;;;;;;;;;6267121;28;20032;-84
2021/11/01 16:52:32;;;;;;;6.00;4.90;;;10.40;99.90;;;;;;6247787;28;20112;-83
2021/11/01 16:55:40;;;;;;;13.27;9.45;;;10.50;99.90;;;;;;6233352;28;20037;-84
2021/11/01 16:58:45;;;;;;;15.23;10.82;;;10.40;99.90;;;;;;6252606;28;20025;-84
2021/11/01 17:01:51;;;;;;;7.28;3.80;;;10.70;99.90;;;;;;6250517;28;20465;-85
2021/11/01 17:05:04;;;;;;;5.28;2.28;;;;;;;;;;6237305;28;20025;-84
2021/11/01 17:24:49;;;;;;;7.38;4.60;;;10.00;99.90;;;;;;6228450;28;20037;-85
2021/11/01 17:31:25;;;;;;;5.20;2.50;;;;;;;;;;6248844;28;20037;-86
2021/11/01 17:34:49;;;;;;;12.13;9.02;;;9.70;99.90;;;;;;6243582;28;20026;-88
2021/11/01 18:36:16;;;;;;;19.10;11.90;;;8.60;99.90;;;;;;6245979;28;20029;-85
2021/11/01 18:54:02;;;;;;;11.60;6.00;;;7.80;99.90;;;;;;6257950;28;20087;-82
2021/11/01 18:57:04;;;;;;;13.68;7.88;;;7.90;99.90;;;;;;6246265;28;20029;-84
2021/11/01 19:00:05;;;;;;;16.23;8.93;;;8.10;99.90;;;;;;6248030;28;20455;-85
2021/11/01 19:03:06;;;;;;;20.23;13.82;;;;;;;;;;6230161;28;20774;-82
2021/11/01 19:06:24;;;;;;;11.23;8.15;;;7.60;99.90;;;;;;6258507;28;20099;-84
2021/11/01 19:09:39;;;;;;;14.57;10.60;;;7.50;99.90;;;;;;6223148;28;20033;-85
2021/11/01 20:06:00;;;;;;;4.72;3.28;;;;;;;;;;6251639;28;20032;-85
2021/11/01 21:25:54;;;;;;;5.10;3.20;;;7.00;99.90;;;;;;6253516;28;20037;-84
2021/11/01 21:28:55;;;;;;;4.97;3.00;;;;;;;;;;6213207;28;20471;-85
2021/11/01 21:31:56;;;;;;;4.22;3.10;;;7.30;99.90;;;;;;6259903;28;20498;-83
2021/11/01 21:35:00;;;;;;;8.38;2.90;;;6.90;99.90;;;;;;6231203;28;20025;-85
2021/11/01 21:38:00;;;;;;;6.30;3.00;;;7.00;99.90;;;;;;6222131;28;20025;-84
2021/11/01 21:41:01;;;;;;;7.90;3.13;;;;;;;;;;6235119;28;20072;-83
2021/11/01 21:44:02;;;;;;;4.40;2.60;;;;;;;;;;6266534;28;20045;-84
2021/11/01 21:47:03;;;;;;;4.32;2.72;;;;;;;;;;6266455;28;20040;-85
2021/11/01 21:50:06;;;;;;;4.03;2.80;;;7.10;99.90;;;;;;6264773;28;20032;-86
2021/11/01 21:53:07;;;;;;;5.47;3.53;;;;;;;;;;6233850;28;20029;-84
2021/11/01 21:56:11;;;;;;;4.43;2.85;;;7.10;99.90;;;;;;6266492;28;20037;-85
2021/11/01 22:25:16;;;;;;;7.82;2.97;;;7.80;99.90;;;;;;6262471;28;20025;-85
2021/11/01 22:57:03;;;;;;;7.20;4.57;;;7.70;99.90;;;;;;6263089;28;20034;-84
2021/11/01 23:00:17;;;;;;;4.57;2.50;;;7.60;99.90;;;;;;6246740;28;20037;-84
2021/11/01 23:03:27;;;;;;;6.40;2.40;;;7.30;99.90;;;;;;6264103;28;20029;-82
2021/11/01 23:06:55;;;;;;;3.75;2.95;;;7.60;99.90;;;;;;6254987;28;20079;-81
2021/11/01 23:33:23;;;;;;;8.40;2.80;;;7.80;99.90;;;;;;6261937;28;20395;-83
2021/11/01 23:36:23;;;;;;;4.88;2.42;;;7.90;99.90;;;;;;6253778;28;20029;-82
2021/11/01 23:39:24;;;;;;;5.00;2.25;;;;;;;;;;6252963;28;20080;-86
2021/11/01 23:42:25;;;;;;;8.15;3.75;;;;;;;;;;6269531;28;20391;-84
2021/11/01 23:45:26;;;;;;;5.43;1.92;;;8.00;99.90;;;;;;6270572;28;20055;-85
2021/11/01 23:48:27;;;;;;;5.50;1.60;;;8.20;99.90;;;;;;6265365;28;20096;-86
2021/11/01 23:51:31;;;;;;;4.82;2.10;;;8.30;99.90;;;;;;6245890;28;20472;-85
2021/11/01 23:54:44;;;;;;;3.20;1.58;;;;;;;;;;6245705;28;20104;-82
2021/11/01 23:57:45;;;;;;;3.05;1.30;;;8.50;99.90;;;;;;6260561;28;20478;-85
